createdAt,value
2023-01-19T00:02:07.146Z,32.43
2023-01-19T00:04:38.663Z,32.42
2023-01-19T00:07:10.050Z,32.01
2023-01-19T00:09:41.136Z,33.39
2023-01-19T00:12:11.656Z,32.94
2023-01-19T00:14:42.566Z,32.91
2023-01-19T00:17:13.699Z,33.05
2023-01-19T00:19:45.039Z,32.70
2023-01-19T00:22:16.009Z,33.31
2023-01-19T00:24:46.745Z,32.19
2023-01-19T00:27:17.884Z,33.40
2023-01-19T00:29:49.175Z,32.69
2023-01-19T00:32:21.743Z,32.58
2023-01-19T00:34:53.817Z,32.98
2023-01-19T00:37:24.873Z,33.51
2023-01-19T00:39:55.729Z,33.68
2023-01-19T00:42:47.241Z,34.30
2023-01-19T00:45:23.652Z,34.36
2023-01-19T00:47:58.569Z,34.40
2023-01-19T00:50:31.339Z,32.41
2023-01-19T00:53:03.212Z,32.33
2023-01-19T00:55:37.444Z,33.44
2023-01-19T00:58:08.731Z,33.59
2023-01-19T01:00:40.314Z,32.24
2023-01-19T01:03:12.701Z,31.81
2023-01-19T01:05:44.767Z,33.19
2023-01-19T01:08:15.222Z,33.26
2023-01-19T01:10:46.417Z,32.94
2023-01-19T01:13:20.334Z,33.47
2023-01-19T01:15:53.811Z,32.65
2023-01-19T01:18:26.258Z,32.99
2023-01-19T01:21:07.665Z,31.84
2023-01-19T01:23:39.012Z,31.72
2023-01-19T01:26:10.367Z,32.37
2023-01-19T01:28:41.565Z,32.81
2023-01-19T01:31:11.995Z,32.49
2023-01-19T01:33:43.065Z,32.46
2023-01-19T01:36:14.617Z,33.08
2023-01-19T01:38:45.680Z,32.16
2023-01-19T01:41:17.110Z,31.34
2023-01-19T01:43:59.655Z,32.13
2023-01-19T01:46:32.611Z,32.49
2023-01-19T01:49:10.093Z,31.43
2023-01-19T01:51:53.363Z,32.12
2023-01-19T01:54:29.111Z,32.84
2023-01-19T01:57:05.836Z,32.44
2023-01-19T01:59:42.590Z,32.29
2023-01-19T02:02:55.874Z,32.77
2023-01-19T02:05:31.289Z,33.25
2023-01-19T02:08:38.384Z,33.01
2023-01-19T02:11:27.523Z,32.50
2023-01-19T02:13:58.931Z,32.02
2023-01-19T02:16:31.500Z,31.42
2023-01-19T02:19:02.633Z,32.34
2023-01-19T02:21:33.187Z,32.19
2023-01-19T02:24:04.544Z,32.57
2023-01-19T02:26:46.760Z,31.56
2023-01-19T02:29:21.156Z,31.33
2023-01-19T02:31:52.357Z,30.91
2023-01-19T02:34:24.326Z,31.47
2023-01-19T02:37:25.625Z,30.81
2023-01-19T02:39:59.831Z,30.33
2023-01-19T02:42:34.718Z,29.93
2023-01-19T02:45:08.436Z,30.14
2023-01-19T02:47:53.333Z,30.62
2023-01-19T02:50:51.271Z,30.54
2023-01-19T02:53:34.612Z,30.03
2023-01-19T02:56:38.727Z,30.56
2023-01-19T02:59:21.607Z,30.07
2023-01-19T03:01:52.560Z,30.20
2023-01-19T03:04:38.467Z,30.37
2023-01-19T03:07:31.764Z,30.11
2023-01-19T03:10:13.597Z,29.72
2023-01-19T03:12:54.696Z,29.20
2023-01-19T03:15:51.134Z,29.56
2023-01-19T03:18:25.859Z,29.52
2023-01-19T03:20:59.951Z,30.87
2023-01-19T03:23:33.578Z,30.05
2023-01-19T03:26:06.677Z,29.63
2023-01-19T03:28:38.419Z,30.15
2023-01-19T03:31:22.562Z,30.08
2023-01-19T03:34:02.431Z,30.67
2023-01-19T03:36:39.387Z,30.92
2023-01-19T03:39:11.869Z,31.04
2023-01-19T03:41:43.990Z,31.37
2023-01-19T03:44:15.116Z,30.86
2023-01-19T03:46:47.775Z,30.61
2023-01-19T03:49:19.016Z,30.90
2023-01-19T03:51:50.307Z,30.76
2023-01-19T03:54:21.274Z,29.97
2023-01-19T03:56:53.914Z,29.32
2023-01-19T03:59:25.016Z,30.36
2023-01-19T04:01:56.355Z,30.25
2023-01-19T04:04:27.252Z,29.79
2023-01-19T04:06:59.166Z,30.36
2023-01-19T04:09:30.163Z,30.19
2023-01-19T04:12:03.366Z,30.58
2023-01-19T04:14:34.246Z,29.75
2023-01-19T04:17:05.142Z,29.64
2023-01-19T04:19:36.602Z,29.37
2023-01-19T04:22:07.500Z,29.69
2023-01-19T04:24:38.653Z,29.60
2023-01-19T04:27:09.463Z,29.54
2023-01-19T04:29:40.254Z,29.68
2023-01-19T04:32:11.358Z,30.10
2023-01-19T04:34:42.713Z,29.76
2023-01-19T04:37:14.010Z,29.57
2023-01-19T04:39:45.345Z,29.69
2023-01-19T04:42:16.702Z,29.38
2023-01-19T04:44:48.182Z,29.41
2023-01-19T04:47:18.619Z,29.15
2023-01-19T04:49:50.047Z,29.36
2023-01-19T04:52:20.959Z,28.49
2023-01-19T04:54:51.847Z,29.08
2023-01-19T04:57:22.627Z,29.24
2023-01-19T04:59:53.679Z,29.63
2023-01-19T05:02:24.905Z,29.41
2023-01-19T05:04:56.201Z,29.07
2023-01-19T05:07:27.295Z,29.46
2023-01-19T05:09:58.589Z,29.29
2023-01-19T05:12:30.625Z,29.10
2023-01-19T05:15:01.516Z,28.53
2023-01-19T05:17:33.465Z,28.85
2023-01-19T05:20:05.256Z,29.14
2023-01-19T05:22:36.274Z,28.80
2023-01-19T05:25:10.175Z,28.99
2023-01-19T05:27:41.223Z,28.90
2023-01-19T05:30:13.654Z,28.55
2023-01-19T05:32:44.752Z,28.48
2023-01-19T05:35:18.300Z,28.75
2023-01-19T05:37:51.383Z,27.98
2023-01-19T05:40:23.093Z,27.74
2023-01-19T05:42:54.738Z,28.40
2023-01-19T05:45:25.703Z,28.45
2023-01-19T05:47:57.297Z,27.90
2023-01-19T05:50:28.689Z,28.09
2023-01-19T05:53:01.599Z,27.74
2023-01-19T05:55:33.668Z,28.03
2023-01-19T05:58:04.848Z,28.16
2023-01-19T06:00:36.200Z,28.09
2023-01-19T06:03:07.928Z,28.15
2023-01-19T06:05:40.941Z,27.76
2023-01-19T06:08:11.796Z,27.62
2023-01-19T06:10:42.715Z,27.40
2023-01-19T06:13:14.482Z,27.15
2023-01-19T06:15:46.452Z,26.76
2023-01-19T06:18:17.132Z,27.02
2023-01-19T06:20:48.331Z,26.14
2023-01-19T06:23:18.965Z,26.23
2023-01-19T06:25:51.621Z,26.26
2023-01-19T06:28:22.878Z,27.00
2023-01-19T06:30:55.334Z,26.79
2023-01-19T06:33:27.361Z,26.96
2023-01-19T06:35:59.057Z,27.07
2023-01-19T06:38:30.551Z,27.26
2023-01-19T06:41:04.145Z,26.95
2023-01-19T06:43:35.559Z,26.55
2023-01-19T06:46:06.530Z,26.58
2023-01-19T06:48:37.391Z,26.70
2023-01-19T06:51:08.750Z,26.82
2023-01-19T06:53:40.207Z,26.47
2023-01-19T06:56:11.688Z,26.01
2023-01-19T06:58:44.119Z,26.42
2023-01-19T07:01:15.215Z,26.27
2023-01-19T07:03:46.980Z,25.88
2023-01-19T07:06:17.977Z,25.78
2023-01-19T07:08:49.104Z,25.64
2023-01-19T07:11:26.404Z,25.35
2023-01-19T07:14:02.606Z,25.46
2023-01-19T07:16:34.135Z,25.23
2023-01-19T07:19:04.611Z,25.34
2023-01-19T07:21:35.634Z,25.35
2023-01-19T07:24:06.367Z,24.94
2023-01-19T07:26:37.232Z,24.52
2023-01-19T07:29:08.672Z,24.54
2023-01-19T07:31:40.255Z,24.06
2023-01-19T07:34:12.622Z,23.89
2023-01-19T07:36:44.232Z,24.03
2023-01-19T07:39:15.605Z,24.14
2023-01-19T07:41:46.686Z,23.95
2023-01-19T07:44:18.042Z,23.64
2023-01-19T07:46:48.567Z,24.04
2023-01-19T07:49:19.731Z,23.77
2023-01-19T07:51:51.044Z,23.59
2023-01-19T07:54:22.253Z,23.60
2023-01-19T07:56:56.623Z,23.36
2023-01-19T07:59:27.568Z,23.44
2023-01-19T08:02:00.858Z,23.25
2023-01-19T08:04:32.170Z,23.05
2023-01-19T08:07:02.882Z,23.17
2023-01-19T08:09:34.192Z,23.25
2023-01-19T08:12:05.483Z,23.10
2023-01-19T08:14:37.447Z,22.92
2023-01-19T08:17:08.445Z,22.86
2023-01-19T08:19:41.405Z,22.86
2023-01-19T08:22:12.700Z,22.95
2023-01-19T08:24:43.855Z,22.45
2023-01-19T08:27:14.934Z,22.54
2023-01-19T08:29:46.317Z,22.26
2023-01-19T08:32:17.402Z,22.50
2023-01-19T08:34:48.469Z,22.63
2023-01-19T08:37:19.678Z,22.46
2023-01-19T08:39:50.489Z,22.25
2023-01-19T08:42:21.822Z,22.21
2023-01-19T08:44:58.053Z,22.25
2023-01-19T08:47:29.948Z,22.13
2023-01-19T08:50:01.346Z,21.99
2023-01-19T08:52:33.438Z,21.55
2023-01-19T08:55:04.843Z,21.76
2023-01-19T08:57:36.451Z,21.66
2023-01-19T09:00:09.351Z,21.49
2023-01-19T09:02:40.724Z,21.42
2023-01-19T09:05:11.893Z,21.53
2023-01-19T09:07:43.265Z,21.57
2023-01-19T09:10:15.002Z,21.26
2023-01-19T09:12:46.532Z,21.36
2023-01-19T09:15:18.566Z,21.69
2023-01-19T09:17:49.765Z,21.62
2023-01-19T09:20:20.922Z,21.61
2023-01-19T09:22:52.028Z,21.57
2023-01-19T09:25:23.173Z,21.59
2023-01-19T09:27:54.446Z,21.44
2023-01-19T09:30:25.770Z,21.46
2023-01-19T09:32:59.283Z,21.59
2023-01-19T09:35:30.262Z,21.75
2023-01-19T09:38:02.120Z,21.54
2023-01-19T09:40:33.582Z,21.48
2023-01-19T09:43:53.819Z,21.29
2023-01-19T09:46:44.074Z,21.18
2023-01-19T09:49:32.335Z,21.25
2023-01-19T09:52:03.761Z,21.10
2023-01-19T09:54:49.172Z,21.24
2023-01-19T09:57:20.370Z,21.31
2023-01-19T09:59:52.889Z,21.32
2023-01-19T10:03:03.376Z,21.23
2023-01-19T10:05:43.836Z,21.26
2023-01-19T10:08:38.177Z,21.15
2023-01-19T10:11:52.007Z,21.20
2023-01-19T10:14:39.038Z,21.07
2023-01-19T10:17:59.221Z,21.01
2023-01-19T10:20:52.623Z,20.91
2023-01-19T10:23:56.156Z,20.71
2023-01-19T10:26:28.234Z,20.61
2023-01-19T10:29:05.243Z,20.47
2023-01-19T10:31:38.397Z,20.59
2023-01-19T10:34:11.035Z,20.54
2023-01-19T10:36:42.839Z,20.39
2023-01-19T10:39:17.319Z,20.61
2023-01-19T10:41:55.758Z,20.60
2023-01-19T10:44:29.483Z,20.49
2023-01-19T10:47:01.635Z,20.52
2023-01-19T10:49:41.589Z,20.34
2023-01-19T10:52:36.412Z,20.13
2023-01-19T10:55:13.941Z,20.26
2023-01-19T10:57:46.646Z,20.36
2023-01-19T11:00:32.705Z,20.30
2023-01-19T11:03:04.787Z,20.44
2023-01-19T11:05:37.501Z,20.45
2023-01-19T11:08:31.079Z,20.25
2023-01-19T11:11:05.971Z,20.34
2023-01-19T11:13:38.364Z,20.10
2023-01-19T11:16:41.550Z,19.98
2023-01-19T11:19:31.231Z,20.13
2023-01-19T11:22:26.291Z,19.91
2023-01-19T11:25:02.227Z,19.89
2023-01-19T11:27:36.673Z,19.78
2023-01-19T11:30:17.956Z,19.80
2023-01-19T11:32:50.650Z,19.81
2023-01-19T11:35:36.067Z,19.66
2023-01-19T11:38:20.010Z,19.48
2023-01-19T11:40:59.243Z,19.61
2023-01-19T11:43:48.363Z,19.67
2023-01-19T11:46:20.403Z,19.78
2023-01-19T11:49:03.460Z,19.50
2023-01-19T11:51:46.159Z,19.55
2023-01-19T11:54:31.450Z,19.83
2023-01-19T11:57:04.306Z,19.79
2023-01-19T11:59:35.898Z,19.88
2023-01-19T12:02:28.545Z,19.82
2023-01-19T12:05:02.787Z,19.59
2023-01-19T12:07:36.127Z,19.57
2023-01-19T12:10:31.178Z,19.79
2023-01-19T12:13:03.069Z,19.73
2023-01-19T12:15:39.924Z,19.55
2023-01-19T12:18:20.518Z,19.34
2023-01-19T12:20:57.777Z,19.30
2023-01-19T12:23:31.732Z,19.33
2023-01-19T12:26:44.524Z,19.41
2023-01-19T12:29:17.538Z,19.11
2023-01-19T12:31:50.467Z,19.31
2023-01-19T12:34:37.511Z,19.11
2023-01-19T12:37:32.499Z,19.20
2023-01-19T12:40:28.593Z,18.97
2023-01-19T12:43:03.586Z,19.00
2023-01-19T12:45:41.110Z,19.17
2023-01-19T12:48:26.971Z,19.20
2023-01-19T12:50:57.886Z,19.14
2023-01-19T12:53:28.819Z,19.15
2023-01-19T12:56:07.416Z,19.04
2023-01-19T12:58:38.500Z,19.07
2023-01-19T13:01:19.779Z,18.96
2023-01-19T13:04:29.582Z,18.79
2023-01-19T13:07:07.175Z,18.98
2023-01-19T13:09:40.164Z,18.74
2023-01-19T13:12:17.428Z,18.80
2023-01-19T13:14:49.047Z,18.94
2023-01-19T13:17:35.411Z,19.02
2023-01-19T13:20:20.279Z,18.86
2023-01-19T13:22:52.946Z,18.72
2023-01-19T13:25:36.963Z,18.84
2023-01-19T13:28:11.138Z,18.85
2023-01-19T13:30:56.953Z,18.79
2023-01-19T13:33:30.338Z,18.71
2023-01-19T13:36:01.968Z,18.85
2023-01-19T13:38:34.616Z,18.97
2023-01-19T13:41:05.896Z,18.81
2023-01-19T13:43:39.508Z,18.77
2023-01-19T13:46:13.548Z,18.83
2023-01-19T13:48:56.480Z,18.76
2023-01-19T13:51:27.902Z,18.83
2023-01-19T13:54:07.097Z,18.68
2023-01-19T13:56:38.103Z,18.77
2023-01-19T13:59:13.904Z,18.60
2023-01-19T14:01:47.609Z,18.38
2023-01-19T14:04:35.976Z,18.36
2023-01-19T14:07:13.593Z,18.44
2023-01-19T14:09:44.649Z,18.43
2023-01-19T14:12:18.946Z,18.22
2023-01-19T14:14:50.245Z,18.37
2023-01-19T14:17:25.010Z,18.19
2023-01-19T14:19:58.950Z,18.06
2023-01-19T14:22:45.131Z,18.07
2023-01-19T14:25:37.104Z,18.01
2023-01-19T14:28:30.621Z,18.04
2023-01-19T14:31:18.499Z,17.99
2023-01-19T14:33:50.825Z,18.09
2023-01-19T14:36:27.870Z,18.08
2023-01-19T14:39:01.647Z,18.02
2023-01-19T14:41:42.606Z,18.18
2023-01-19T14:44:18.653Z,18.40
2023-01-19T14:46:50.591Z,18.04
2023-01-19T14:49:41.984Z,18.05
2023-01-19T14:52:28.687Z,18.14
2023-01-19T14:55:00.941Z,17.99
2023-01-19T14:57:32.354Z,17.85
2023-01-19T15:00:04.509Z,17.97
2023-01-19T15:02:35.818Z,17.94
2023-01-19T15:05:07.697Z,18.01
2023-01-19T15:07:39.062Z,18.10
2023-01-19T15:10:27.210Z,18.02
2023-01-19T15:12:58.823Z,17.88
2023-01-19T15:15:33.397Z,17.76
2023-01-19T15:18:06.111Z,17.74
2023-01-19T15:20:37.145Z,17.67
2023-01-19T15:23:08.408Z,17.62
2023-01-19T15:25:43.796Z,17.91
2023-01-19T15:28:17.724Z,17.84
2023-01-19T15:30:49.071Z,17.88
2023-01-19T15:33:23.019Z,17.77
2023-01-19T15:35:54.983Z,17.79
2023-01-19T15:38:42.604Z,17.80
2023-01-19T15:41:37.725Z,18.00
2023-01-19T15:44:10.613Z,18.07
2023-01-19T15:46:41.865Z,17.99
2023-01-19T15:49:13.269Z,17.78
2023-01-19T15:51:44.655Z,17.71
2023-01-19T15:54:16.408Z,17.76
2023-01-19T15:56:47.723Z,17.67
2023-01-19T15:59:18.737Z,17.72
2023-01-19T16:01:52.271Z,17.65
2023-01-19T16:04:23.693Z,17.67
2023-01-19T16:06:54.857Z,17.64
2023-01-19T16:09:25.966Z,17.60
2023-01-19T16:11:58.819Z,17.43
2023-01-19T16:14:29.675Z,17.43
2023-01-19T16:17:03.641Z,17.59
2023-01-19T16:19:34.732Z,17.67
2023-01-19T16:22:07.129Z,17.64
2023-01-19T16:24:38.308Z,17.47
2023-01-19T16:27:10.393Z,17.55
2023-01-19T16:29:41.749Z,17.60
2023-01-19T16:32:12.715Z,17.60
2023-01-19T16:34:44.040Z,17.62
2023-01-19T16:37:15.106Z,17.56
2023-01-19T16:39:46.867Z,17.58
2023-01-19T16:42:18.167Z,17.56
2023-01-19T16:44:49.524Z,17.51
2023-01-19T16:47:20.955Z,17.34
2023-01-19T16:49:52.060Z,17.23
2023-01-19T16:52:23.100Z,17.09
2023-01-19T16:54:56.052Z,17.04
2023-01-19T16:57:27.172Z,17.12
2023-01-19T16:59:58.026Z,17.14
2023-01-19T17:02:29.211Z,17.16
2023-01-19T17:05:01.734Z,17.18
2023-01-19T17:07:33.657Z,17.02
2023-01-19T17:10:04.329Z,16.99
2023-01-19T17:12:35.682Z,16.98
2023-01-19T17:15:07.337Z,16.97
2023-01-19T17:17:38.188Z,16.90
2023-01-19T17:20:10.634Z,16.87
2023-01-19T17:22:41.936Z,16.82
2023-01-19T17:25:13.203Z,16.82
2023-01-19T17:27:44.278Z,16.88
2023-01-19T17:30:15.866Z,16.91
2023-01-19T17:32:46.932Z,17.01
2023-01-19T17:35:17.882Z,17.02
2023-01-19T17:37:48.819Z,17.05
2023-01-19T17:40:20.135Z,17.12
2023-01-19T17:42:51.081Z,17.11
2023-01-19T17:45:22.083Z,17.16
2023-01-19T17:47:53.748Z,17.18
2023-01-19T17:50:25.002Z,17.02
2023-01-19T17:52:56.027Z,17.00
2023-01-19T17:55:27.050Z,17.07
2023-01-19T17:57:59.622Z,17.00
2023-01-19T18:00:31.715Z,16.99
2023-01-19T18:03:02.789Z,16.95
2023-01-19T18:05:34.128Z,17.09
2023-01-19T18:08:05.179Z,16.90
2023-01-19T18:10:36.543Z,16.93
2023-01-19T18:13:07.760Z,16.75
2023-01-19T18:15:39.124Z,16.76
2023-01-19T18:18:10.389Z,16.71
2023-01-19T18:20:42.192Z,17.13
2023-01-19T18:23:14.494Z,17.26
2023-01-19T18:25:45.484Z,17.48
2023-01-19T18:28:16.823Z,17.53
2023-01-19T18:30:48.201Z,17.50
2023-01-19T18:33:19.379Z,17.51
2023-01-19T18:35:50.547Z,17.45
2023-01-19T18:38:21.972Z,17.55
2023-01-19T18:41:06.319Z,17.29
2023-01-19T18:43:38.001Z,17.58
2023-01-19T18:46:09.666Z,17.96
2023-01-19T18:48:41.403Z,17.77
2023-01-19T18:51:15.336Z,18.16
2023-01-19T18:53:47.519Z,18.28
2023-01-19T18:56:18.885Z,18.51
2023-01-19T18:58:50.405Z,18.74
2023-01-19T19:01:32.500Z,18.90
2023-01-19T19:04:04.432Z,19.05
2023-01-19T19:06:35.883Z,19.34
2023-01-19T19:09:07.163Z,19.59
2023-01-19T19:11:38.333Z,19.48
2023-01-19T19:14:09.777Z,19.44
2023-01-19T19:16:40.921Z,19.78
2023-01-19T19:19:14.428Z,19.81
2023-01-19T19:21:48.073Z,19.73
2023-01-19T19:24:19.506Z,20.43
2023-01-19T19:26:50.401Z,19.69
2023-01-19T19:29:22.315Z,19.66
2023-01-19T19:31:57.177Z,20.34
2023-01-19T19:34:29.383Z,19.51
2023-01-19T19:37:01.281Z,19.86
2023-01-19T19:39:32.454Z,20.00
2023-01-19T19:42:03.504Z,19.88
2023-01-19T19:44:34.626Z,20.25
2023-01-19T19:47:05.953Z,20.30
2023-01-19T19:49:36.985Z,20.18
2023-01-19T19:52:08.099Z,19.97
2023-01-19T19:54:39.535Z,20.19
2023-01-19T19:57:10.674Z,20.06
2023-01-19T19:59:42.133Z,21.20
2023-01-19T20:02:14.736Z,21.44
2023-01-19T20:04:46.402Z,21.49
2023-01-19T20:07:18.025Z,21.64
2023-01-19T20:09:49.109Z,21.95
2023-01-19T20:12:20.182Z,21.92
2023-01-19T20:14:51.308Z,22.13
2023-01-19T20:17:22.548Z,22.67
2023-01-19T20:19:53.567Z,22.42
2023-01-19T20:22:24.689Z,22.98
2023-01-19T20:24:56.202Z,23.13
2023-01-19T20:27:27.057Z,22.90
2023-01-19T20:29:59.604Z,23.36
2023-01-19T20:32:29.942Z,23.36
2023-01-19T20:35:01.592Z,23.61
2023-01-19T20:37:33.351Z,23.52
2023-01-19T20:40:04.689Z,23.39
2023-01-19T20:42:35.501Z,23.79
2023-01-19T20:45:06.856Z,24.38
2023-01-19T20:47:37.384Z,24.40
2023-01-19T20:50:09.061Z,24.48
2023-01-19T20:52:40.324Z,24.44
2023-01-19T20:55:11.804Z,24.52
2023-01-19T20:57:43.196Z,24.78
2023-01-19T21:00:14.521Z,24.73
2023-01-19T21:02:45.989Z,24.93
2023-01-19T21:05:17.276Z,24.82
2023-01-19T21:07:48.601Z,24.27
2023-01-19T21:10:20.410Z,25.15
2023-01-19T21:12:51.805Z,24.76
2023-01-19T21:15:22.685Z,25.21
2023-01-19T21:17:53.614Z,25.10
2023-01-19T21:20:25.103Z,25.39
2023-01-19T21:22:55.999Z,25.35
2023-01-19T21:25:27.167Z,25.90
2023-01-19T21:27:58.241Z,26.37
2023-01-19T21:30:29.158Z,25.43
2023-01-19T21:33:00.148Z,26.16
2023-01-19T21:35:31.285Z,26.36
2023-01-19T21:38:02.591Z,26.71
2023-01-19T21:40:33.809Z,27.05
2023-01-19T21:43:04.748Z,26.40
2023-01-19T21:45:35.520Z,26.88
2023-01-19T21:48:06.688Z,27.87
2023-01-19T21:50:38.558Z,27.83
2023-01-19T21:53:12.706Z,28.24
2023-01-19T21:55:47.041Z,26.44
2023-01-19T21:58:18.090Z,26.40
2023-01-19T22:00:49.170Z,26.94
2023-01-19T22:03:21.299Z,26.51
2023-01-19T22:05:52.683Z,27.67
2023-01-19T22:08:24.421Z,28.98
2023-01-19T22:10:55.593Z,28.10
2023-01-19T22:13:26.693Z,28.03
2023-01-19T22:16:10.264Z,28.22
2023-01-19T22:18:43.131Z,28.52
2023-01-19T22:21:16.658Z,27.81
2023-01-19T22:23:51.379Z,26.46
2023-01-19T22:26:23.169Z,26.26
2023-01-19T22:28:58.444Z,27.25
2023-01-19T22:31:31.889Z,27.86
2023-01-19T22:34:03.448Z,27.75
2023-01-19T22:36:35.417Z,27.34
2023-01-19T22:39:09.179Z,26.96
2023-01-19T22:41:49.327Z,27.68
2023-01-19T22:44:25.034Z,26.82
2023-01-19T22:46:57.706Z,27.75
2023-01-19T22:49:29.680Z,28.82
2023-01-19T22:52:00.870Z,29.46
2023-01-19T22:54:32.040Z,28.44
2023-01-19T22:57:02.787Z,29.26
2023-01-19T22:59:33.610Z,29.49
2023-01-19T23:02:04.700Z,29.28
2023-01-19T23:04:36.208Z,27.93
2023-01-19T23:07:09.987Z,29.15
2023-01-19T23:09:40.802Z,28.45
2023-01-19T23:12:11.924Z,28.38
2023-01-19T23:14:42.834Z,26.87
2023-01-19T23:17:13.913Z,28.09
2023-01-19T23:19:45.351Z,27.95
2023-01-19T23:22:16.553Z,28.89
2023-01-19T23:24:47.888Z,28.90
2023-01-19T23:27:18.997Z,28.86
2023-01-19T23:29:49.580Z,29.67
2023-01-19T23:32:21.256Z,28.35
2023-01-19T23:34:52.122Z,29.14
2023-01-19T23:37:23.273Z,29.99
2023-01-19T23:39:54.385Z,30.01
2023-01-19T23:42:25.091Z,31.00
2023-01-19T23:44:56.776Z,30.68
2023-01-19T23:47:27.863Z,29.30
2023-01-19T23:49:58.720Z,29.50
2023-01-19T23:52:29.535Z,29.57
2023-01-19T23:55:00.790Z,30.60
2023-01-19T23:57:33.208Z,29.84
